CCA8227 ZHHH-ZSAM
Flight info
| Callsign | CCA8227 |
|---|---|
| Flight time | 1h 33m |
| Altitude | 35100 |
| Route | XSH1E XSH W105 NCH/K0861S1100 W19 PULES/K0863S1070 W19 RUNEK/K0859S1100 W19 PLT/K0863S1070 DCT TEBON TEBON8X |
| Aircraft | A320/M-SDE3FGHIRWY/LB1 |
Departure
| Time | 2026-05-07 10:34 |
|---|---|
| Airport | Wuhan Tianhe International Airport (ZHHH) |
Arrival
| Time | 2026-05-07 12:08 |
|---|---|
| Airport | Xiamen Gaoqi International Airport (ZSAM) |
| Time | Latitude | Longitude | Altitude | Speed | Heading |
|---|---|---|---|---|---|
| 2026-05-07 10:12 | 30.77067 | 114.21716 | 107 ft | 0 kts | 221° |
| 2026-05-07 10:24 | 30.77070 | 114.21718 | 107 ft | 3 kts | 221° |
| 2026-05-07 10:25 | 30.77089 | 114.21738 | 106 ft | 4 kts | 219° |
| 2026-05-07 10:25 | 30.77110 | 114.21750 | 106 ft | 4 kts | 164° |
| 2026-05-07 10:25 | 30.77129 | 114.21733 | 107 ft | 4 kts | 129° |
| 2026-05-07 10:25 | 30.77135 | 114.21725 | 105 ft | 0 kts | 131° |
| 2026-05-07 10:27 | 30.77107 | 114.21762 | 106 ft | 11 kts | 131° |
| 2026-05-07 10:28 | 30.77061 | 114.21821 | 106 ft | 9 kts | 132° |
| 2026-05-07 10:28 | 30.77019 | 114.21876 | 106 ft | 10 kts | 131° |
| 2026-05-07 10:28 | 30.76966 | 114.21903 | 108 ft | 10 kts | 193° |
| 2026-05-07 10:28 | 30.76901 | 114.21840 | 108 ft | 14 kts | 222° |
| 2026-05-07 10:29 | 30.76834 | 114.21772 | 107 ft | 13 kts | 221° |
| 2026-05-07 10:29 | 30.76724 | 114.21658 | 107 ft | 27 kts | 221° |
| 2026-05-07 10:29 | 30.76582 | 114.21511 | 107 ft | 28 kts | 221° |
| 2026-05-07 10:30 | 30.76285 | 114.21208 | 108 ft | 29 kts | 221° |
| 2026-05-07 10:30 | 30.76137 | 114.21057 | 107 ft | 23 kts | 221° |
| 2026-05-07 10:30 | 30.76035 | 114.20918 | 108 ft | 20 kts | 276° |
| 2026-05-07 10:30 | 30.76128 | 114.20834 | 107 ft | 21 kts | 317° |
| 2026-05-07 10:31 | 30.76244 | 114.20688 | 107 ft | 26 kts | 312° |
| 2026-05-07 10:31 | 30.76365 | 114.20529 | 106 ft | 27 kts | 311° |
| 2026-05-07 10:31 | 30.76489 | 114.20367 | 107 ft | 27 kts | 311° |
| 2026-05-07 10:31 | 30.76617 | 114.20201 | 106 ft | 28 kts | 311° |
| 2026-05-07 10:32 | 30.76751 | 114.20025 | 103 ft | 29 kts | 311° |
| 2026-05-07 10:32 | 30.76888 | 114.19845 | 104 ft | 30 kts | 311° |
| 2026-05-07 10:32 | 30.77038 | 114.19762 | 105 ft | 19 kts | 12° |
| 2026-05-07 10:32 | 30.77155 | 114.19741 | 105 ft | 18 kts | 313° |
| 2026-05-07 10:33 | 30.77250 | 114.19657 | 105 ft | 12 kts | 9° |
| 2026-05-07 10:33 | 30.77306 | 114.19727 | 105 ft | 13 kts | 41° |
| 2026-05-07 10:33 | 30.77402 | 114.19825 | 105 ft | 35 kts | 41° |
| 2026-05-07 10:33 | 30.77776 | 114.20207 | 107 ft | 103 kts | 41° |
| 2026-05-07 10:34 | 30.78453 | 114.20899 | 111 ft | 153 kts | 41° |
| 2026-05-07 10:34 | 30.79348 | 114.21814 | 363 ft | 177 kts | 41° |
| 2026-05-07 10:34 | 30.80263 | 114.22751 | 1052 ft | 177 kts | 41° |
| 2026-05-07 10:34 | 30.81190 | 114.23688 | 1812 ft | 179 kts | 42° |
| 2026-05-07 10:35 | 30.82189 | 114.24709 | 2210 ft | 203 kts | 41° |
| 2026-05-07 10:35 | 30.83314 | 114.25860 | 2685 ft | 225 kts | 41° |
| 2026-05-07 10:35 | 30.84510 | 114.27085 | 3498 ft | 231 kts | 40° |
| 2026-05-07 10:35 | 30.85729 | 114.28336 | 4375 ft | 236 kts | 40° |
| 2026-05-07 10:36 | 30.86970 | 114.29606 | 5237 ft | 240 kts | 40° |
| 2026-05-07 10:36 | 30.88243 | 114.30908 | 6024 ft | 247 kts | 40° |
| 2026-05-07 10:36 | 30.89539 | 114.32236 | 6761 ft | 255 kts | 41° |
| 2026-05-07 10:36 | 30.90888 | 114.33619 | 7512 ft | 261 kts | 40° |
| 2026-05-07 10:37 | 30.92276 | 114.35043 | 8277 ft | 267 kts | 40° |
| 2026-05-07 10:37 | 30.93672 | 114.36479 | 9019 ft | 273 kts | 40° |
| 2026-05-07 10:37 | 30.95114 | 114.37962 | 9762 ft | 279 kts | 40° |
| 2026-05-07 10:37 | 30.96598 | 114.39486 | 10372 ft | 291 kts | 39° |
| 2026-05-07 10:38 | 30.98184 | 114.41112 | 10597 ft | 315 kts | 38° |
| 2026-05-07 10:38 | 30.99891 | 114.42862 | 10775 ft | 338 kts | 39° |
| 2026-05-07 10:38 | 31.01723 | 114.44744 | 11007 ft | 357 kts | 40° |
| 2026-05-07 10:38 | 31.03585 | 114.46664 | 11527 ft | 365 kts | 40° |
| 2026-05-07 10:39 | 31.05498 | 114.48644 | 12175 ft | 371 kts | 39° |
| 2026-05-07 10:39 | 31.07440 | 114.50650 | 12827 ft | 375 kts | 39° |
| 2026-05-07 10:39 | 31.09399 | 114.52691 | 13436 ft | 381 kts | 41° |
| 2026-05-07 10:39 | 31.11129 | 114.55070 | 13994 ft | 389 kts | 55° |
| 2026-05-07 10:40 | 31.12424 | 114.57891 | 14485 ft | 397 kts | 67° |
| 2026-05-07 10:40 | 31.13185 | 114.61014 | 14978 ft | 405 kts | 79° |
| 2026-05-07 10:40 | 31.13366 | 114.64315 | 15482 ft | 410 kts | 90° |
| 2026-05-07 10:40 | 31.13342 | 114.67679 | 15973 ft | 416 kts | 90° |
| 2026-05-07 10:41 | 31.13318 | 114.71031 | 16430 ft | 421 kts | 90° |
| 2026-05-07 10:41 | 31.13295 | 114.74497 | 16883 ft | 426 kts | 90° |
| 2026-05-07 10:41 | 31.13234 | 114.77990 | 17310 ft | 432 kts | 95° |
| 2026-05-07 10:41 | 31.12696 | 114.81404 | 17711 ft | 436 kts | 108° |
| 2026-05-07 10:42 | 31.11529 | 114.84677 | 18151 ft | 438 kts | 121° |
| 2026-05-07 10:42 | 31.09786 | 114.87590 | 18543 ft | 439 kts | 134° |
| 2026-05-07 10:42 | 31.07553 | 114.90009 | 18923 ft | 437 kts | 147° |
| 2026-05-07 10:42 | 31.04951 | 114.91826 | 19304 ft | 435 kts | 158° |
| 2026-05-07 10:43 | 31.02225 | 114.93376 | 19694 ft | 437 kts | 158° |
| 2026-05-07 10:43 | 30.99481 | 114.94933 | 20115 ft | 440 kts | 158° |
| 2026-05-07 10:43 | 30.96707 | 114.96508 | 20500 ft | 443 kts | 159° |
| 2026-05-07 10:43 | 30.93925 | 114.98091 | 20889 ft | 446 kts | 159° |
| 2026-05-07 10:44 | 30.91125 | 114.99686 | 21280 ft | 449 kts | 159° |
| 2026-05-07 10:44 | 30.88345 | 115.01272 | 21647 ft | 452 kts | 159° |
| 2026-05-07 10:44 | 30.85502 | 115.02891 | 22004 ft | 456 kts | 159° |
| 2026-05-07 10:44 | 30.82642 | 115.04520 | 22361 ft | 459 kts | 158° |
| 2026-05-07 10:45 | 30.79745 | 115.06169 | 22717 ft | 463 kts | 159° |
| 2026-05-07 10:45 | 30.76840 | 115.07815 | 23075 ft | 465 kts | 159° |
| 2026-05-07 10:45 | 30.73940 | 115.09458 | 23421 ft | 468 kts | 159° |
| 2026-05-07 10:45 | 30.71009 | 115.11121 | 23720 ft | 471 kts | 159° |
| 2026-05-07 10:46 | 30.68048 | 115.12800 | 24005 ft | 473 kts | 159° |
| 2026-05-07 10:46 | 30.65079 | 115.14482 | 24284 ft | 475 kts | 159° |
| 2026-05-07 10:46 | 30.62087 | 115.16174 | 24572 ft | 478 kts | 159° |
| 2026-05-07 10:46 | 30.59094 | 115.17867 | 24832 ft | 480 kts | 159° |
| 2026-05-07 10:47 | 30.56088 | 115.19565 | 25155 ft | 481 kts | 159° |
| 2026-05-07 10:47 | 30.53105 | 115.21247 | 25437 ft | 482 kts | 159° |
| 2026-05-07 10:47 | 30.50080 | 115.22951 | 25715 ft | 484 kts | 159° |
| 2026-05-07 10:47 | 30.47045 | 115.24663 | 25982 ft | 486 kts | 159° |
| 2026-05-07 10:48 | 30.43988 | 115.26386 | 26241 ft | 488 kts | 160° |
| 2026-05-07 10:48 | 30.40896 | 115.28008 | 26496 ft | 488 kts | 162° |
| 2026-05-07 10:48 | 30.37745 | 115.29485 | 26749 ft | 488 kts | 165° |
| 2026-05-07 10:48 | 30.34548 | 115.30862 | 26989 ft | 489 kts | 166° |
| 2026-05-07 10:49 | 30.31339 | 115.32191 | 27243 ft | 491 kts | 166° |
| 2026-05-07 10:49 | 30.28100 | 115.33536 | 27473 ft | 493 kts | 166° |
| 2026-05-07 10:49 | 30.24917 | 115.34890 | 27718 ft | 495 kts | 165° |
| 2026-05-07 10:49 | 30.21689 | 115.36299 | 28077 ft | 494 kts | 165° |
| 2026-05-07 10:50 | 30.18482 | 115.37727 | 28449 ft | 494 kts | 165° |
| 2026-05-07 10:50 | 30.15280 | 115.39162 | 28786 ft | 494 kts | 165° |
| 2026-05-07 10:50 | 30.12074 | 115.40599 | 29133 ft | 493 kts | 165° |
| 2026-05-07 10:50 | 30.08869 | 115.42031 | 29484 ft | 493 kts | 165° |
| 2026-05-07 10:51 | 30.05661 | 115.43456 | 29849 ft | 492 kts | 165° |
| 2026-05-07 10:51 | 30.02464 | 115.44867 | 30187 ft | 491 kts | 165° |
| 2026-05-07 10:51 | 29.99308 | 115.46258 | 30473 ft | 491 kts | 165° |
| 2026-05-07 10:51 | 29.96113 | 115.47664 | 30789 ft | 490 kts | 165° |
| 2026-05-07 10:52 | 29.92932 | 115.49062 | 31107 ft | 489 kts | 166° |
| 2026-05-07 10:52 | 29.89750 | 115.50460 | 31425 ft | 488 kts | 166° |
| 2026-05-07 10:52 | 29.86575 | 115.51857 | 31745 ft | 487 kts | 166° |
| 2026-05-07 10:52 | 29.83404 | 115.53252 | 32081 ft | 486 kts | 166° |
| 2026-05-07 10:53 | 29.80237 | 115.54645 | 32420 ft | 485 kts | 166° |
| 2026-05-07 10:53 | 29.77121 | 115.56015 | 32753 ft | 484 kts | 166° |
| 2026-05-07 10:53 | 29.73979 | 115.57394 | 33093 ft | 483 kts | 166° |
| 2026-05-07 10:53 | 29.70836 | 115.58771 | 33394 ft | 482 kts | 166° |
| 2026-05-07 10:54 | 29.67704 | 115.60140 | 33722 ft | 481 kts | 166° |
| 2026-05-07 10:54 | 29.64561 | 115.61515 | 34053 ft | 480 kts | 167° |
| 2026-05-07 10:54 | 29.61441 | 115.62880 | 34327 ft | 480 kts | 167° |
| 2026-05-07 10:54 | 29.58321 | 115.64242 | 34598 ft | 480 kts | 167° |
| 2026-05-07 10:55 | 29.55202 | 115.65604 | 34868 ft | 479 kts | 167° |
| 2026-05-07 10:55 | 29.52121 | 115.66951 | 35049 ft | 479 kts | 167° |
| 2026-05-07 10:55 | 29.45851 | 115.69691 | 35096 ft | 484 kts | 167° |
| 2026-05-07 10:56 | 29.39549 | 115.72445 | 35097 ft | 483 kts | 167° |
| 2026-05-07 10:56 | 29.33262 | 115.75181 | 35091 ft | 483 kts | 167° |
| 2026-05-07 10:57 | 29.26905 | 115.77620 | 35088 ft | 479 kts | 171° |
| 2026-05-07 10:57 | 29.20511 | 115.79745 | 35087 ft | 478 kts | 172° |
| 2026-05-07 10:58 | 29.14141 | 115.81857 | 35067 ft | 479 kts | 171° |
| 2026-05-07 10:58 | 29.07752 | 115.84084 | 35079 ft | 480 kts | 170° |
| 2026-05-07 10:59 | 29.01425 | 115.86463 | 35088 ft | 481 kts | 169° |
| 2026-05-07 10:59 | 28.95046 | 115.88714 | 35089 ft | 472 kts | 178° |
| 2026-05-07 11:00 | 28.91811 | 115.89099 | 35088 ft | 460 kts | 188° |
| 2026-05-07 11:00 | 28.88640 | 115.88840 | 35066 ft | 449 kts | 198° |
| 2026-05-07 11:00 | 28.82894 | 115.86669 | 35063 ft | 431 kts | 215° |
| 2026-05-07 11:01 | 28.77906 | 115.82996 | 35058 ft | 426 kts | 220° |
| 2026-05-07 11:01 | 28.72980 | 115.79205 | 35062 ft | 427 kts | 220° |
| 2026-05-07 11:02 | 28.68029 | 115.75392 | 35066 ft | 428 kts | 220° |
| 2026-05-07 11:02 | 28.63095 | 115.71596 | 35074 ft | 429 kts | 220° |
| 2026-05-07 11:03 | 28.57740 | 115.68433 | 35078 ft | 436 kts | 212° |
| 2026-05-07 11:03 | 28.52283 | 115.65490 | 35081 ft | 436 kts | 212° |
| 2026-05-07 11:04 | 28.46786 | 115.62526 | 35087 ft | 437 kts | 212° |
| 2026-05-07 11:04 | 28.41126 | 115.59921 | 35065 ft | 448 kts | 200° |
| 2026-05-07 11:05 | 28.38006 | 115.59419 | 35063 ft | 459 kts | 189° |
| 2026-05-07 11:05 | 28.34776 | 115.59611 | 35062 ft | 470 kts | 178° |
| 2026-05-07 11:05 | 28.28374 | 115.61697 | 35057 ft | 481 kts | 169° |
| 2026-05-07 11:06 | 28.23069 | 115.63646 | 35058 ft | 482 kts | 169° |
| 2026-05-07 11:06 | 28.16691 | 115.65963 | 35064 ft | 482 kts | 169° |
| 2026-05-07 11:07 | 28.10287 | 115.68278 | 35062 ft | 482 kts | 169° |
| 2026-05-07 11:07 | 28.03928 | 115.70583 | 35075 ft | 482 kts | 169° |
| 2026-05-07 11:08 | 27.97467 | 115.72064 | 35090 ft | 466 kts | 185° |
| 2026-05-07 11:08 | 27.91169 | 115.71299 | 35078 ft | 448 kts | 202° |
| 2026-05-07 11:09 | 27.85326 | 115.69024 | 35042 ft | 444 kts | 206° |
| 2026-05-07 11:09 | 27.79473 | 115.66679 | 35054 ft | 444 kts | 206° |
| 2026-05-07 11:10 | 27.73672 | 115.64363 | 35062 ft | 445 kts | 206° |
| 2026-05-07 11:10 | 27.67827 | 115.62005 | 35071 ft | 445 kts | 206° |
| 2026-05-07 11:11 | 27.61987 | 115.59638 | 35071 ft | 445 kts | 206° |
| 2026-05-07 11:11 | 27.56149 | 115.57277 | 35059 ft | 445 kts | 206° |
| 2026-05-07 11:12 | 27.50345 | 115.54939 | 35053 ft | 446 kts | 206° |
| 2026-05-07 11:12 | 27.44464 | 115.52578 | 35054 ft | 446 kts | 206° |
| 2026-05-07 11:13 | 27.38646 | 115.50243 | 35059 ft | 446 kts | 206° |
| 2026-05-07 11:13 | 27.32784 | 115.47883 | 35054 ft | 446 kts | 206° |
| 2026-05-07 11:14 | 27.26965 | 115.45551 | 35057 ft | 447 kts | 206° |
| 2026-05-07 11:14 | 27.21097 | 115.43201 | 35061 ft | 447 kts | 206° |
| 2026-05-07 11:15 | 27.15219 | 115.40844 | 35063 ft | 447 kts | 206° |
| 2026-05-07 11:15 | 27.09389 | 115.38504 | 35050 ft | 447 kts | 206° |
| 2026-05-07 11:16 | 27.03525 | 115.36162 | 35057 ft | 447 kts | 205° |
| 2026-05-07 11:16 | 26.97649 | 115.33826 | 35063 ft | 447 kts | 205° |
| 2026-05-07 11:17 | 26.91778 | 115.31491 | 35066 ft | 447 kts | 205° |
| 2026-05-07 11:17 | 26.85938 | 115.29165 | 35068 ft | 448 kts | 205° |
| 2026-05-07 11:18 | 26.80053 | 115.26821 | 35055 ft | 448 kts | 205° |
| 2026-05-07 11:18 | 26.74164 | 115.24473 | 35056 ft | 448 kts | 206° |
| 2026-05-07 11:19 | 26.68321 | 115.22132 | 35057 ft | 449 kts | 206° |
| 2026-05-07 11:19 | 26.62419 | 115.19774 | 35062 ft | 449 kts | 205° |
| 2026-05-07 11:20 | 26.56553 | 115.17439 | 35054 ft | 449 kts | 205° |
| 2026-05-07 11:20 | 26.50657 | 115.15092 | 35065 ft | 449 kts | 205° |
| 2026-05-07 11:21 | 26.44740 | 115.12747 | 35062 ft | 450 kts | 205° |
| 2026-05-07 11:21 | 26.38873 | 115.10424 | 35066 ft | 450 kts | 205° |
| 2026-05-07 11:22 | 26.32961 | 115.08075 | 35045 ft | 450 kts | 205° |
| 2026-05-07 11:22 | 26.27083 | 115.05739 | 35044 ft | 451 kts | 205° |
| 2026-05-07 11:23 | 26.21148 | 115.03390 | 35042 ft | 451 kts | 205° |
| 2026-05-07 11:23 | 26.15214 | 115.01050 | 35053 ft | 451 kts | 205° |
| 2026-05-07 11:24 | 26.09319 | 114.98728 | 35048 ft | 451 kts | 205° |
| 2026-05-07 11:24 | 26.03398 | 114.96393 | 35055 ft | 451 kts | 205° |
| 2026-05-07 11:25 | 25.97466 | 114.94049 | 35049 ft | 451 kts | 205° |
| 2026-05-07 11:25 | 25.91541 | 114.91720 | 35050 ft | 451 kts | 205° |
| 2026-05-07 11:26 | 25.85401 | 114.90310 | 35048 ft | 466 kts | 183° |
| 2026-05-07 11:26 | 25.82157 | 114.90882 | 35047 ft | 478 kts | 167° |
| 2026-05-07 11:26 | 25.79097 | 114.92408 | 35023 ft | 488 kts | 151° |
| 2026-05-07 11:27 | 25.76460 | 114.94823 | 35019 ft | 497 kts | 135° |
| 2026-05-07 11:27 | 25.74360 | 114.97904 | 35008 ft | 501 kts | 127° |
| 2026-05-07 11:27 | 25.70416 | 115.04268 | 34998 ft | 503 kts | 127° |
| 2026-05-07 11:28 | 25.66446 | 115.10692 | 35010 ft | 505 kts | 127° |
| 2026-05-07 11:28 | 25.62463 | 115.17104 | 35021 ft | 506 kts | 127° |
| 2026-05-07 11:29 | 25.58482 | 115.23496 | 35030 ft | 506 kts | 127° |
| 2026-05-07 11:29 | 25.54472 | 115.29925 | 35037 ft | 507 kts | 127° |
| 2026-05-07 11:30 | 25.50438 | 115.36367 | 35046 ft | 507 kts | 127° |
| 2026-05-07 11:30 | 25.46420 | 115.42791 | 35051 ft | 508 kts | 127° |
| 2026-05-07 11:31 | 25.42417 | 115.49194 | 35043 ft | 508 kts | 127° |
| 2026-05-07 11:31 | 25.38379 | 115.55629 | 35039 ft | 508 kts | 127° |
| 2026-05-07 11:32 | 25.32340 | 115.65247 | 35046 ft | 509 kts | 126° |
| 2026-05-07 11:33 | 25.28282 | 115.71695 | 35050 ft | 510 kts | 127° |
| 2026-05-07 11:33 | 25.24223 | 115.78136 | 35059 ft | 510 kts | 127° |
| 2026-05-07 11:34 | 25.20189 | 115.84534 | 35059 ft | 510 kts | 127° |
| 2026-05-07 11:34 | 25.16118 | 115.90976 | 35058 ft | 510 kts | 127° |
| 2026-05-07 11:35 | 25.12049 | 115.97399 | 35064 ft | 510 kts | 127° |
| 2026-05-07 11:35 | 25.07977 | 116.03826 | 35068 ft | 510 kts | 127° |
| 2026-05-07 11:36 | 25.03912 | 116.10234 | 35063 ft | 509 kts | 127° |
| 2026-05-07 11:36 | 24.99870 | 116.16601 | 35048 ft | 509 kts | 127° |
| 2026-05-07 11:37 | 24.95797 | 116.22991 | 35053 ft | 510 kts | 127° |
| 2026-05-07 11:37 | 24.91721 | 116.29395 | 35056 ft | 509 kts | 127° |
| 2026-05-07 11:38 | 24.87653 | 116.35782 | 35054 ft | 509 kts | 127° |
| 2026-05-07 11:38 | 24.83567 | 116.42180 | 35049 ft | 509 kts | 127° |
| 2026-05-07 11:39 | 24.79507 | 116.48523 | 35049 ft | 509 kts | 127° |
| 2026-05-07 11:39 | 24.75417 | 116.54903 | 35051 ft | 509 kts | 127° |
| 2026-05-07 11:40 | 24.71345 | 116.61249 | 35047 ft | 509 kts | 127° |
| 2026-05-07 11:40 | 24.67239 | 116.67641 | 35043 ft | 509 kts | 127° |
| 2026-05-07 11:41 | 24.63144 | 116.74007 | 35042 ft | 510 kts | 127° |
| 2026-05-07 11:41 | 24.59055 | 116.80357 | 35043 ft | 510 kts | 127° |
| 2026-05-07 11:42 | 24.54951 | 116.86727 | 35045 ft | 510 kts | 126° |
| 2026-05-07 11:42 | 24.50862 | 116.93062 | 35053 ft | 509 kts | 127° |
| 2026-05-07 11:43 | 24.46774 | 116.99385 | 35052 ft | 509 kts | 127° |
| 2026-05-07 11:43 | 24.42673 | 117.05729 | 35051 ft | 509 kts | 126° |
| 2026-05-07 11:44 | 24.38567 | 117.12065 | 35055 ft | 509 kts | 127° |
| 2026-05-07 11:44 | 24.34440 | 117.18418 | 35065 ft | 508 kts | 127° |
| 2026-05-07 11:45 | 24.30367 | 117.24698 | 35059 ft | 507 kts | 127° |
| 2026-05-07 11:45 | 24.26265 | 117.31001 | 35059 ft | 506 kts | 127° |
| 2026-05-07 11:46 | 24.22174 | 117.37284 | 35047 ft | 506 kts | 126° |
| 2026-05-07 11:46 | 24.18654 | 117.43930 | 35053 ft | 505 kts | 107° |
| 2026-05-07 11:46 | 24.17959 | 117.47673 | 35041 ft | 501 kts | 92° |
| 2026-05-07 11:47 | 24.17958 | 117.50187 | 35044 ft | 498 kts | 82° |
| 2026-05-07 11:47 | 24.18644 | 117.53879 | 35045 ft | 491 kts | 67° |
| 2026-05-07 11:47 | 24.20693 | 117.58209 | 35040 ft | 480 kts | 48° |
| 2026-05-07 11:48 | 24.24389 | 117.62768 | 35024 ft | 477 kts | 43° |
| 2026-05-07 11:48 | 24.29597 | 117.69027 | 35019 ft | 478 kts | 43° |
| 2026-05-07 11:49 | 24.32079 | 117.72016 | 35015 ft | 479 kts | 43° |
| 2026-05-07 11:49 | 24.36569 | 117.77433 | 34982 ft | 479 kts | 43° |
| 2026-05-07 11:49 | 24.39543 | 117.81017 | 34125 ft | 481 kts | 44° |
| 2026-05-07 11:50 | 24.41066 | 117.82851 | 33572 ft | 482 kts | 44° |
| 2026-05-07 11:50 | 24.43330 | 117.85579 | 32696 ft | 484 kts | 44° |
| 2026-05-07 11:50 | 24.45610 | 117.88328 | 31796 ft | 488 kts | 45° |
| 2026-05-07 11:50 | 24.47877 | 117.91063 | 31532 ft | 476 kts | 45° |
| 2026-05-07 11:51 | 24.50064 | 117.93710 | 31397 ft | 460 kts | 45° |
| 2026-05-07 11:51 | 24.52129 | 117.96217 | 31202 ft | 438 kts | 45° |
| 2026-05-07 11:51 | 24.54131 | 117.98650 | 31003 ft | 422 kts | 45° |
| 2026-05-07 11:51 | 24.56078 | 118.01007 | 30682 ft | 410 kts | 45° |
| 2026-05-07 11:52 | 24.57794 | 118.03500 | 30083 ft | 407 kts | 60° |
| 2026-05-07 11:52 | 24.58811 | 118.06343 | 29395 ft | 402 kts | 78° |
| 2026-05-07 11:52 | 24.59042 | 118.09409 | 28712 ft | 395 kts | 97° |
| 2026-05-07 11:52 | 24.58481 | 118.12301 | 28067 ft | 386 kts | 114° |
| 2026-05-07 11:53 | 24.57239 | 118.14881 | 27425 ft | 376 kts | 130° |
| 2026-05-07 11:53 | 24.55496 | 118.16920 | 26829 ft | 364 kts | 146° |
| 2026-05-07 11:53 | 24.53378 | 118.18359 | 26236 ft | 352 kts | 161° |
| 2026-05-07 11:53 | 24.51087 | 118.19144 | 25662 ft | 340 kts | 176° |
| 2026-05-07 11:54 | 24.48765 | 118.19292 | 25103 ft | 329 kts | 189° |
| 2026-05-07 11:54 | 24.46547 | 118.18849 | 24559 ft | 319 kts | 202° |
| 2026-05-07 11:54 | 24.44548 | 118.17896 | 24044 ft | 309 kts | 215° |
| 2026-05-07 11:54 | 24.42850 | 118.16542 | 23545 ft | 302 kts | 225° |
| 2026-05-07 11:55 | 24.41333 | 118.14965 | 22959 ft | 297 kts | 229° |
| 2026-05-07 11:55 | 24.39927 | 118.13316 | 22411 ft | 292 kts | 231° |
| 2026-05-07 11:55 | 24.38582 | 118.11663 | 21882 ft | 289 kts | 231° |
| 2026-05-07 11:55 | 24.37254 | 118.10021 | 21371 ft | 285 kts | 231° |
| 2026-05-07 11:56 | 24.35939 | 118.08408 | 20854 ft | 282 kts | 231° |
| 2026-05-07 11:56 | 24.34626 | 118.06817 | 20367 ft | 280 kts | 231° |
| 2026-05-07 11:56 | 24.33481 | 118.05150 | 19904 ft | 274 kts | 241° |
| 2026-05-07 11:56 | 24.32639 | 118.03296 | 19454 ft | 270 kts | 251° |
| 2026-05-07 11:57 | 24.32135 | 118.01325 | 19002 ft | 267 kts | 261° |
| 2026-05-07 11:57 | 24.31985 | 117.99303 | 18558 ft | 265 kts | 271° |
| 2026-05-07 11:57 | 24.32189 | 117.97291 | 18095 ft | 264 kts | 281° |
| 2026-05-07 11:57 | 24.32733 | 117.95366 | 17590 ft | 264 kts | 291° |
| 2026-05-07 11:58 | 24.33604 | 117.93580 | 17113 ft | 264 kts | 302° |
| 2026-05-07 11:58 | 24.34766 | 117.92016 | 16624 ft | 265 kts | 312° |
| 2026-05-07 11:58 | 24.36181 | 117.90712 | 16162 ft | 267 kts | 323° |
| 2026-05-07 11:58 | 24.37787 | 117.89734 | 15737 ft | 268 kts | 333° |
| 2026-05-07 11:59 | 24.41593 | 117.88845 | 14828 ft | 272 kts | 356° |
| 2026-05-07 11:59 | 24.48515 | 117.91952 | 13108 ft | 277 kts | 40° |
| 2026-05-07 11:59 | 24.53703 | 117.98092 | 11372 ft | 268 kts | 46° |
| 2026-05-07 11:59 | 24.57582 | 118.04630 | 9657 ft | 257 kts | 95° |
| 2026-05-07 12:00 | 24.52722 | 118.08690 | 7619 ft | 239 kts | 197° |
| 2026-05-07 12:00 | 24.49039 | 118.03619 | 5724 ft | 222 kts | 274° |
| 2026-05-07 12:00 | 24.53199 | 117.99419 | 3761 ft | 227 kts | 3° |
| 2026-05-07 12:00 | 24.56920 | 118.01925 | 3325 ft | 226 kts | 47° |
| 2026-05-07 12:01 | 24.58077 | 118.03257 | 3209 ft | 244 kts | 47° |
| 2026-05-07 12:01 | 24.59245 | 118.04591 | 3080 ft | 241 kts | 47° |
| 2026-05-07 12:01 | 24.60418 | 118.05929 | 3309 ft | 245 kts | 46° |
| 2026-05-07 12:01 | 24.61600 | 118.07274 | 4200 ft | 244 kts | 45° |
| 2026-05-07 12:02 | 24.64976 | 118.11109 | 4884 ft | 254 kts | 44° |
| 2026-05-07 12:02 | 24.69750 | 118.16521 | 4929 ft | 253 kts | 44° |
| 2026-05-07 12:02 | 24.74173 | 118.22315 | 4761 ft | 251 kts | 82° |
| 2026-05-07 12:02 | 24.71081 | 118.27136 | 4469 ft | 211 kts | 144° |
| 2026-05-07 12:03 | 24.69906 | 118.28085 | 4320 ft | 205 kts | 153° |
| 2026-05-07 12:03 | 24.68606 | 118.28644 | 3996 ft | 200 kts | 171° |
| 2026-05-07 12:03 | 24.67215 | 118.28701 | 3504 ft | 204 kts | 191° |
| 2026-05-07 12:03 | 24.65899 | 118.28227 | 3216 ft | 196 kts | 210° |
| 2026-05-07 12:04 | 24.64837 | 118.27343 | 2971 ft | 188 kts | 227° |
| 2026-05-07 12:04 | 24.64027 | 118.26240 | 2734 ft | 183 kts | 232° |
| 2026-05-07 12:04 | 24.63251 | 118.25151 | 2520 ft | 179 kts | 231° |
| 2026-05-07 12:04 | 24.62503 | 118.24100 | 2311 ft | 170 kts | 231° |
| 2026-05-07 12:05 | 24.61790 | 118.23101 | 2105 ft | 162 kts | 231° |
| 2026-05-07 12:05 | 24.61118 | 118.22158 | 1878 ft | 152 kts | 231° |
| 2026-05-07 12:05 | 24.60486 | 118.21273 | 1665 ft | 144 kts | 230° |
| 2026-05-07 12:05 | 24.59876 | 118.20418 | 1472 ft | 140 kts | 230° |
| 2026-05-07 12:06 | 24.59274 | 118.19575 | 1290 ft | 140 kts | 231° |
| 2026-05-07 12:06 | 24.58679 | 118.18740 | 1107 ft | 139 kts | 231° |
| 2026-05-07 12:06 | 24.58076 | 118.17896 | 929 ft | 140 kts | 231° |
| 2026-05-07 12:06 | 24.57475 | 118.17054 | 763 ft | 141 kts | 231° |
| 2026-05-07 12:07 | 24.56872 | 118.16209 | 588 ft | 140 kts | 230° |
| 2026-05-07 12:07 | 24.56272 | 118.15370 | 401 ft | 139 kts | 231° |
| 2026-05-07 12:07 | 24.55675 | 118.14536 | 205 ft | 138 kts | 231° |
| 2026-05-07 12:07 | 24.55082 | 118.13707 | 54 ft | 137 kts | 230° |
| 2026-05-07 12:08 | 24.54569 | 118.12994 | 51 ft | 88 kts | 232° |
| 2026-05-07 12:08 | 24.54357 | 118.12694 | 51 ft | 33 kts | 232° |
| 2026-05-07 12:08 | 24.54215 | 118.12530 | 57 ft | 18 kts | 212° |
| 2026-05-07 12:08 | 24.54101 | 118.12469 | 48 ft | 19 kts | 199° |
| 2026-05-07 12:09 | 24.54007 | 118.12432 | 50 ft | 8 kts | 200° |
| 2026-05-07 12:09 | 24.53962 | 118.12414 | 55 ft | 6 kts | 201° |
| 2026-05-07 12:09 | 24.53935 | 118.12391 | 56 ft | 4 kts | 230° |
| 2026-05-07 12:09 | 24.53906 | 118.12351 | 54 ft | 7 kts | 231° |
| 2026-05-07 12:10 | 24.53877 | 118.12312 | 52 ft | 6 kts | 231° |
| 2026-05-07 12:10 | 24.53857 | 118.12283 | 54 ft | 4 kts | 234° |
| 2026-05-07 12:10 | 24.53823 | 118.12232 | 57 ft | 13 kts | 234° |
| 2026-05-07 12:10 | 24.53751 | 118.12217 | 56 ft | 11 kts | 135° |
| 2026-05-07 12:11 | 24.53778 | 118.12277 | 54 ft | 9 kts | 41° |
| 2026-05-07 12:11 | 24.53828 | 118.12347 | 55 ft | 15 kts | 51° |
| 2026-05-07 12:11 | 24.53891 | 118.12434 | 57 ft | 14 kts | 52° |
| 2026-05-07 12:11 | 24.53948 | 118.12521 | 66 ft | 12 kts | 76° |
| 2026-05-07 12:12 | 24.53913 | 118.12598 | 55 ft | 12 kts | 92° |
| 2026-05-07 12:12 | 24.53975 | 118.12698 | 52 ft | 17 kts | 52° |
| 2026-05-07 12:12 | 24.54050 | 118.12804 | 55 ft | 18 kts | 52° |
| 2026-05-07 12:12 | 24.54130 | 118.12923 | 51 ft | 19 kts | 53° |
| 2026-05-07 12:13 | 24.54222 | 118.13014 | 54 ft | 11 kts | 357° |
| 2026-05-07 12:13 | 24.54251 | 118.12952 | 54 ft | 10 kts | 249° |
| 2026-05-07 12:13 | 24.54213 | 118.12907 | 55 ft | 6 kts | 170° |
| 2026-05-07 12:13 | 24.54201 | 118.12915 | 51 ft | 1 kts | 147° |
| 2026-05-07 12:14 | 24.54195 | 118.12920 | 55 ft | 1 kts | 143° |